Time;durP1;ratioP1;P1;durP2;ratioP2;P2;SDS_P1;SDS_P2;PMS_P1;PMS_P2;Temp;Humidity;BMP_temperature;BMP_pressure;BME280_temperature;BME280_humidity;BME280_pressure;Samples;Min_cycle;Max_cycle;Signal;HPM_P1;HPM_P2
2021/11/19 00:01:28;;;;;;;;;;;7.40;99.90;;;;;;5062598;28;20071;-63
2021/11/19 00:03:54;;;;;;;1.10;1.00;;;7.30;99.90;;;;;;5063080;28;19920;-64
2021/11/19 00:06:19;;;;;;;;;;;7.40;99.90;;;;;;5062012;28;20041;-64
2021/11/19 00:08:47;;;;;;;1.40;1.00;;;7.40;99.90;;;;;;5062824;28;19923;-64
2021/11/19 00:11:17;;;;;;;1.40;1.00;;;7.40;99.90;;;;;;5063368;28;20045;-63
2021/11/19 00:13:43;;;;;;;2.30;1.05;;;7.40;99.90;;;;;;5062832;28;20047;-64
2021/11/19 00:16:10;;;;;;;1.60;1.27;;;7.40;99.90;;;;;;5060100;28;20488;-64
2021/11/19 00:18:36;;;;;;;1.88;1.50;;;7.50;99.90;;;;;;5051370;28;20412;-64
2021/11/19 00:21:02;;;;;;;;;;;7.50;99.90;;;;;;5047011;28;20494;-64
2021/11/19 00:23:28;;;;;;;1.33;1.20;;;7.50;99.90;;;;;;5045982;28;20479;-64
2021/11/19 00:25:54;;;;;;;;;;;7.50;99.90;;;;;;5048218;28;20544;-64
2021/11/19 00:28:20;;;;;;;1.30;1.00;;;7.50;99.90;;;;;;5049328;28;19964;-64
2021/11/19 00:30:46;;;;;;;1.08;1.00;;;7.50;99.90;;;;;;5047274;28;20448;-64
2021/11/19 00:33:13;;;;;;;2.10;1.10;;;7.50;99.90;;;;;;5049663;28;20044;-64
2021/11/19 00:35:42;;;;;;;2.97;1.80;;;7.50;99.90;;;;;;5048479;28;20124;-63
2021/11/19 00:38:09;;;;;;;1.98;1.50;;;7.50;99.90;;;;;;5049499;28;20091;-63
2021/11/19 00:40:40;;;;;;;3.55;1.85;;;7.50;99.90;;;;;;5049157;28;20044;-64
2021/11/19 00:43:07;;;;;;;2.38;1.73;;;7.50;99.90;;;;;;5049111;28;20041;-64
2021/11/19 00:45:33;;;;;;;1.98;1.50;;;7.50;99.90;;;;;;5047845;28;20045;-64
2021/11/19 00:47:59;;;;;;;2.35;1.63;;;7.50;99.90;;;;;;5048639;28;20036;-64
2021/11/19 00:50:30;;;;;;;2.00;1.45;;;7.50;99.90;;;;;;5048881;28;20047;-63
2021/11/19 00:52:56;;;;;;;1.73;1.40;;;7.50;99.90;;;;;;5049074;28;20489;-63
2021/11/19 00:55:22;;;;;;;;;;;7.50;99.90;;;;;;5048905;28;20044;-64
2021/11/19 00:57:48;;;;;;;2.53;1.75;;;7.60;99.90;;;;;;5047723;28;19917;-64
2021/11/19 01:00:15;;;;;;;;;;;7.60;99.90;;;;;;5046765;28;20157;-65
2021/11/19 01:02:41;;;;;;;2.15;1.58;;;7.60;99.90;;;;;;5027566;28;19924;-63
2021/11/19 01:05:07;;;;;;;;;;;7.60;99.90;;;;;;5034829;28;20038;-64
2021/11/19 01:07:33;;;;;;;1.88;1.38;;;7.60;99.90;;;;;;5029854;28;19925;-64
2021/11/19 01:10:15;;;;;;;1.83;1.40;;;7.60;99.90;;;;;;5028074;28;20443;-63
2021/11/19 01:12:48;;;;;;;2.97;1.85;;;7.60;99.90;;;;;;5029159;28;20041;-64
2021/11/19 01:15:24;;;;;;;2.00;1.50;;;7.60;99.90;;;;;;5028551;28;20049;-64
2021/11/19 01:18:04;;;;;;;2.67;1.58;;;7.70;99.90;;;;;;5029070;28;20041;-64
2021/11/19 01:20:35;;;;;;;1.63;1.33;;;7.70;99.90;;;;;;5028852;28;20041;-64
2021/11/19 01:23:04;;;;;;;3.25;1.45;;;7.70;99.90;;;;;;5028512;28;20042;-64
2021/11/19 01:25:33;;;;;;;2.35;1.50;;;7.70;99.90;;;;;;5029234;28;20430;-64
2021/11/19 01:27:59;;;;;;;2.13;1.60;;;7.70;99.90;;;;;;5027173;28;20038;-64
2021/11/19 01:30:39;;;;;;;1.60;1.35;;;7.80;99.90;;;;;;5027223;28;20103;-64
2021/11/19 01:33:07;;;;;;;2.20;1.50;;;7.80;99.90;;;;;;5028444;28;20379;-65
2021/11/19 01:35:33;;;;;;;2.15;1.63;;;7.80;99.90;;;;;;5028126;28;20038;-64
2021/11/19 01:37:59;;;;;;;2.17;1.40;;;7.80;99.90;;;;;;5028571;28;20131;-64
2021/11/19 01:40:26;;;;;;;;;;;7.80;99.90;;;;;;5028930;28;20079;-65
2021/11/19 01:42:54;;;;;;;3.30;2.33;;;7.80;99.90;;;;;;5027561;28;19924;-64
2021/11/19 01:45:31;;;;;;;4.22;1.70;;;7.80;99.90;;;;;;5027283;28;20045;-64
2021/11/19 01:47:57;;;;;;;;;;;7.80;99.90;;;;;;5029906;28;20039;-65
2021/11/19 01:50:30;;;;;;;2.10;1.60;;;7.80;99.90;;;;;;5048476;28;20007;-65
2021/11/19 01:53:03;;;;;;;2.00;1.80;;;7.80;99.90;;;;;;5048265;28;20041;-64
2021/11/19 01:55:34;;;;;;;2.25;1.70;;;7.80;99.90;;;;;;5047982;28;20037;-65
2021/11/19 01:58:16;;;;;;;2.08;1.60;;;7.90;99.90;;;;;;5007341;28;20042;-64
2021/11/19 02:01:01;;;;;;;1.95;1.67;;;7.80;99.90;;;;;;5007499;28;20045;-65
2021/11/19 02:03:30;;;;;;;3.05;2.10;;;7.90;99.90;;;;;;5021614;28;20033;-64
2021/11/19 02:06:05;;;;;;;2.78;1.80;;;7.90;99.90;;;;;;5027364;28;20042;-64
2021/11/19 02:08:37;;;;;;;2.20;1.70;;;7.90;99.90;;;;;;5028491;28;20060;-64
2021/11/19 02:11:41;;;;;;;4.78;2.08;;;7.90;99.90;;;;;;5027099;28;20045;-65
2021/11/19 02:14:17;;;;;;;2.50;1.92;;;7.90;99.90;;;;;;5027613;28;20041;-65
2021/11/19 02:16:51;;;;;;;2.17;1.70;;;7.90;99.90;;;;;;5026791;28;20049;-64
2021/11/19 02:19:25;;;;;;;4.75;2.08;;;7.90;99.90;;;;;;5027408;28;20067;-65
2021/11/19 02:22:22;;;;;;;2.05;1.75;;;7.90;99.90;;;;;;5027255;28;20046;-64
2021/11/19 02:24:57;;;;;;;2.30;1.63;;;7.90;99.90;;;;;;5026759;28;20124;-65
2021/11/19 02:27:25;;;;;;;1.70;1.42;;;7.90;99.90;;;;;;5026365;28;20049;-65
2021/11/19 02:30:06;;;;;;;2.58;1.40;;;8.00;99.90;;;;;;5027073;28;20041;-65
2021/11/19 02:32:37;;;;;;;1.60;1.30;;;8.00;99.90;;;;;;5030922;28;20037;-65
2021/11/19 02:35:06;;;;;;;2.28;1.40;;;8.00;99.90;;;;;;5027504;28;20042;-64
2021/11/19 02:37:39;;;;;;;2.10;1.50;;;8.00;99.90;;;;;;5026527;28;20072;-64
2021/11/19 02:40:28;;;;;;;3.50;1.23;;;8.10;99.90;;;;;;5018364;28;20127;-65
2021/11/19 02:43:01;;;;;;;2.25;1.27;;;8.10;99.90;;;;;;5026790;28;20052;-64
2021/11/19 02:45:32;;;;;;;1.92;1.27;;;8.10;99.90;;;;;;5028836;28;20040;-64
2021/11/19 02:47:58;;;;;;;2.75;1.33;;;8.20;99.90;;;;;;5046771;28;20045;-66
2021/11/19 02:50:25;;;;;;;2.88;1.20;;;8.10;99.90;;;;;;5047225;28;20033;-64
2021/11/19 02:52:54;;;;;;;1.85;1.05;;;8.20;99.90;;;;;;5046982;28;20043;-64
2021/11/19 02:55:30;;;;;;;1.73;1.25;;;8.10;99.90;;;;;;5046304;28;20083;-64
2021/11/19 02:57:57;;;;;;;1.48;1.25;;;8.20;99.90;;;;;;5046557;28;20120;-64
2021/11/19 03:00:34;;;;;;;2.00;1.50;;;8.20;99.90;;;;;;5046174;28;20154;-64
2021/11/19 03:03:00;;;;;;;2.72;1.40;;;8.20;99.90;;;;;;5046095;28;20103;-64
2021/11/19 03:05:26;;;;;;;;;;;8.20;99.90;;;;;;5048035;28;20562;-64
2021/11/19 03:07:52;;;;;;;1.92;1.33;;;8.20;99.90;;;;;;5046678;28;19970;-63
2021/11/19 03:10:24;;;;;;;;;;;8.20;99.90;;;;;;5046153;28;20048;-64
2021/11/19 03:12:50;;;;;;;0.82;0.80;;;8.20;99.90;;;;;;5043961;28;20293;-64
2021/11/19 03:15:24;;;;;;;1.15;1.02;;;8.20;99.90;;;;;;5039379;28;20052;-64
2021/11/19 03:17:50;;;;;;;1.40;1.13;;;8.20;99.90;;;;;;5046267;28;20394;-64
2021/11/19 03:20:18;;;;;;;1.23;1.00;;;8.20;99.90;;;;;;5046681;28;20037;-63
2021/11/19 03:22:44;;;;;;;1.25;1.10;;;8.10;99.90;;;;;;5046075;28;20033;-64
2021/11/19 03:25:14;;;;;;;1.10;1.00;;;8.10;99.90;;;;;;5046333;28;20045;-64
2021/11/19 03:27:40;;;;;;;1.40;0.95;;;8.20;99.90;;;;;;5046674;28;20049;-64
2021/11/19 03:30:08;;;;;;;0.98;0.70;;;8.10;99.90;;;;;;5046368;28;20106;-64
2021/11/19 03:32:34;;;;;;;2.25;0.95;;;8.20;99.90;;;;;;5047009;28;20069;-64
2021/11/19 03:35:00;;;;;;;1.45;1.25;;;8.10;99.90;;;;;;5047108;28;20125;-63
2021/11/19 03:37:26;;;;;;;;;;;8.20;99.90;;;;;;5046023;28;20126;-63
2021/11/19 03:39:52;;;;;;;1.40;1.10;;;8.10;99.90;;;;;;5046970;28;19917;-64
2021/11/19 03:42:19;;;;;;;;;;;8.10;99.90;;;;;;5046744;28;20041;-64
2021/11/19 03:44:47;;;;;;;;;;;8.20;99.90;;;;;;5047363;28;19971;-64
2021/11/19 03:47:17;;;;;;;1.63;1.10;;;8.10;99.90;;;;;;5045939;28;19974;-64
2021/11/19 03:49:45;;;;;;;1.15;0.80;;;8.10;99.90;;;;;;5046379;28;20045;-63
2021/11/19 03:52:22;;;;;;;1.15;0.80;;;8.10;99.90;;;;;;5046274;28;20037;-64
2021/11/19 03:54:51;;;;;;;1.92;1.15;;;8.10;99.90;;;;;;5049954;28;20124;-63
2021/11/19 03:57:19;;;;;;;1.70;1.13;;;8.20;99.90;;;;;;5049397;28;20072;-63
2021/11/19 03:59:45;;;;;;;1.27;0.93;;;8.10;99.90;;;;;;5051243;28;20045;-64
2021/11/19 04:02:12;;;;;;;1.70;1.10;;;8.10;99.90;;;;;;5034290;28;20677;-65
2021/11/19 04:04:39;;;;;;;1.55;1.10;;;8.10;99.90;;;;;;5030847;28;20041;-65
2021/11/19 04:07:08;;;;;;;6.10;1.30;;;8.20;99.90;;;;;;5028639;28;20084;-64
2021/11/19 04:09:34;;;;;;;2.95;1.92;;;8.10;99.90;;;;;;5029938;28;20041;-64
2021/11/19 04:12:01;;;;;;;6.55;2.30;;;8.20;99.90;;;;;;5029930;28;20037;-65
2021/11/19 04:14:27;;;;;;;1.33;1.08;;;8.10;99.90;;;;;;5029774;28;20037;-64
2021/11/19 04:16:55;;;;;;;3.20;2.00;;;8.20;99.90;;;;;;5028878;28;20041;-64
2021/11/19 04:19:22;;;;;;;4.82;2.83;;;8.10;99.90;;;;;;5028205;28;20041;-65
2021/11/19 04:21:50;;;;;;;2.08;1.30;;;8.10;99.90;;;;;;5028856;28;20045;-64
2021/11/19 04:24:22;;;;;;;1.45;1.13;;;8.10;99.90;;;;;;5029532;28;20049;-65
2021/11/19 04:26:48;;;;;;;1.80;1.35;;;8.20;99.90;;;;;;5027511;28;20037;-66
2021/11/19 04:29:14;;;;;;;1.42;1.02;;;8.20;99.90;;;;;;5040892;28;20033;-65
2021/11/19 04:31:40;;;;;;;;;;;8.20;99.90;;;;;;5049781;28;20048;-64
2021/11/19 04:34:08;;;;;;;2.40;1.73;;;8.20;99.90;;;;;;5049541;28;19925;-65
2021/11/19 04:36:35;;;;;;;1.38;1.15;;;8.20;99.90;;;;;;5048248;28;20053;-64
2021/11/19 04:39:02;;;;;;;4.15;1.52;;;8.20;99.90;;;;;;5028960;28;20064;-65
2021/11/19 04:41:28;;;;;;;2.03;1.33;;;8.20;99.90;;;;;;5061434;28;20555;-64
2021/11/19 04:43:53;;;;;;;;;;;8.20;99.90;;;;;;5044344;28;20046;-65
2021/11/19 04:46:19;;;;;;;1.55;1.10;;;8.20;99.90;;;;;;5028364;28;20714;-65
2021/11/19 04:48:44;;;;;;;;;;;8.20;99.90;;;;;;5029309;28;20038;-64
2021/11/19 04:51:17;;;;;;;1.05;0.90;;;8.10;99.90;;;;;;5027691;28;20356;-65
2021/11/19 04:53:44;;;;;;;1.42;0.93;;;8.20;99.90;;;;;;5028800;28;20037;-64
2021/11/19 04:56:10;;;;;;;1.08;0.80;;;8.20;99.90;;;;;;5028226;28;20049;-64
2021/11/19 04:58:36;;;;;;;;;;;8.20;99.90;;;;;;5029154;28;20038;-65
2021/11/19 05:01:09;;;;;;;1.45;0.82;;;8.20;99.90;;;;;;5028396;28;19917;-65
2021/11/19 05:03:35;;;;;;;2.63;1.13;;;8.20;99.90;;;;;;5020118;28;20124;-64
2021/11/19 05:06:01;;;;;;;1.75;0.93;;;8.20;99.90;;;;;;5027265;28;20128;-64
2021/11/19 05:08:28;;;;;;;1.60;1.10;;;8.20;99.90;;;;;;5027983;28;20072;-65
2021/11/19 05:10:57;;;;;;;1.38;0.90;;;8.10;99.90;;;;;;5028001;28;20091;-64
2021/11/19 05:13:24;;;;;;;1.38;0.85;;;8.20;99.90;;;;;;5027726;28;20041;-65
2021/11/19 05:15:52;;;;;;;1.02;0.90;;;8.20;99.90;;;;;;5027387;28;20521;-65
2021/11/19 05:18:19;;;;;;;1.42;0.88;;;8.20;99.90;;;;;;5028800;28;20042;-65
2021/11/19 05:20:45;;;;;;;1.00;0.80;;;8.20;99.90;;;;;;5028352;28;20038;-65
2021/11/19 05:23:11;;;;;;;1.67;1.13;;;8.20;99.90;;;;;;5028685;28;20037;-65
2021/11/19 05:25:39;;;;;;;;;;;8.20;99.90;;;;;;5028458;28;20382;-64
2021/11/19 05:28:06;;;;;;;2.17;1.20;;;8.20;99.90;;;;;;5027958;28;19916;-68
2021/11/19 05:30:32;;;;;;;1.88;0.90;;;8.30;99.90;;;;;;5028075;28;20026;-64
2021/11/19 05:32:57;;;;;;;;;;;8.30;99.90;;;;;;5028801;28;20548;-64
2021/11/19 05:35:24;;;;;;;1.80;1.00;;;8.20;99.90;;;;;;5027178;28;19939;-62
2021/11/19 05:37:50;;;;;;;3.35;0.80;;;8.20;99.90;;;;;;5026210;28;20038;-65
2021/11/19 05:40:16;;;;;;;;;;;8.30;99.90;;;;;;5028284;28;20026;-65
2021/11/19 05:42:43;;;;;;;1.30;1.00;;;8.20;99.90;;;;;;5027807;28;19996;-63
2021/11/19 05:45:10;;;;;;;1.20;0.70;;;8.20;99.90;;;;;;5007390;28;20045;-64
2021/11/19 05:47:36;;;;;;;2.15;0.98;;;8.30;99.90;;;;;;5007631;28;20056;-65
2021/11/19 05:50:03;;;;;;;;;;;8.30;99.90;;;;;;5027320;28;20067;-63
2021/11/19 05:52:29;;;;;;;1.70;1.05;;;8.30;99.90;;;;;;5027543;28;20011;-63
2021/11/19 05:54:55;;;;;;;1.75;1.00;;;8.30;99.90;;;;;;5027448;28;20386;-67
2021/11/19 05:57:20;;;;;;;;;;;8.30;99.90;;;;;;5028050;28;20041;-67
2021/11/19 05:59:46;;;;;;;1.58;0.93;;;8.20;99.90;;;;;;5027136;28;19924;-66
2021/11/19 06:02:14;;;;;;;;;;;8.30;99.90;;;;;;5027680;28;20052;-65
2021/11/19 06:04:39;;;;;;;1.50;0.80;;;8.30;99.90;;;;;;5027620;28;19928;-62
2021/11/19 06:07:05;;;;;;;;;;;8.30;99.90;;;;;;5026987;28;20460;-64
2021/11/19 06:09:31;;;;;;;1.60;0.90;;;8.30;99.90;;;;;;5027121;28;19916;-63
2021/11/19 06:12:09;;;;;;;1.60;1.15;;;8.30;99.90;;;;;;5027129;28;20044;-64
2021/11/19 06:14:46;;;;;;;4.72;0.85;;;8.30;99.90;;;;;;5026973;28;20748;-63
2021/11/19 06:17:17;;;;;;;1.13;0.80;;;8.30;99.90;;;;;;5043214;28;20091;-64
2021/11/19 06:19:47;;;;;;;1.35;0.77;;;8.40;99.90;;;;;;5046011;28;20037;-65
2021/11/19 06:22:17;;;;;;;0.90;0.70;;;8.30;99.90;;;;;;5046888;28;20759;-65
2021/11/19 06:24:46;;;;;;;1.20;0.80;;;8.30;99.90;;;;;;5037284;28;20064;-65
2021/11/19 06:27:19;;;;;;;1.50;0.90;;;8.30;99.90;;;;;;5026282;28;20101;-65
2021/11/19 06:29:44;;;;;;;0.90;0.80;;;8.30;99.90;;;;;;5046688;28;20052;-65
2021/11/19 06:32:10;;;;;;;;;;;8.30;99.90;;;;;;5029477;28;20042;-65
2021/11/19 06:34:36;;;;;;;1.50;1.00;;;8.40;99.90;;;;;;5010452;28;19921;-65
2021/11/19 06:37:02;;;;;;;;;;;8.30;99.90;;;;;;5006697;28;20516;-64
2021/11/19 06:39:28;;;;;;;0.60;0.57;;;8.30;99.90;;;;;;5013614;28;19971;-65
2021/11/19 06:41:59;;;;;;;;;;;8.40;99.90;;;;;;5025364;28;20037;-65
2021/11/19 06:44:28;;;;;;;1.13;0.90;;;8.40;99.90;;;;;;5020744;28;19924;-65
2021/11/19 06:47:01;;;;;;;1.58;0.80;;;8.40;99.90;;;;;;5011167;28;20092;-65
2021/11/19 06:49:29;;;;;;;1.13;0.80;;;8.40;99.90;;;;;;5020890;28;20271;-65
2021/11/19 06:51:56;;;;;;;0.80;0.57;;;8.30;99.90;;;;;;5025792;28;20044;-65
2021/11/19 06:54:28;;;;;;;0.90;0.77;;;8.40;99.90;;;;;;5027191;28;20041;-64
2021/11/19 06:57:02;;;;;;;1.23;0.90;;;8.40;99.90;;;;;;5026785;28;20699;-65
2021/11/19 06:59:29;;;;;;;2.13;1.52;;;8.40;99.90;;;;;;5028783;28;20489;-64
2021/11/19 07:01:59;;;;;;;2.63;1.63;;;8.40;99.90;;;;;;5039498;28;20493;-65
2021/11/19 07:04:31;;;;;;;3.92;2.03;;;8.40;99.90;;;;;;5077875;28;20107;-64
2021/11/19 07:07:07;;;;;;;6.40;3.80;;;8.40;99.90;;;;;;5045929;28;20051;-65
2021/11/19 07:09:36;;;;;;;1.35;1.08;;;8.40;99.90;;;;;;5042268;28;20052;-66
2021/11/19 07:12:07;;;;;;;1.40;0.73;;;8.40;99.90;;;;;;5024789;28;20073;-64
2021/11/19 07:14:39;;;;;;;143.55;73.43;;;8.40;99.90;;;;;;5026512;28;20474;-65
2021/11/19 07:17:07;;;;;;;5.65;3.38;;;8.50;99.90;;;;;;5025927;28;20038;-64
2021/11/19 07:19:40;;;;;;;7.78;4.40;;;8.50;99.90;;;;;;5041292;28;20146;-65
2021/11/19 07:22:07;;;;;;;11.73;6.53;;;8.50;99.90;;;;;;5046543;28;20079;-65
2021/11/19 07:24:34;;;;;;;9.35;4.50;;;8.50;99.90;;;;;;5045836;28;20033;-64
2021/11/19 07:27:02;;;;;;;1.52;1.10;;;8.50;99.90;;;;;;5046773;28;20560;-65
2021/11/19 07:29:28;;;;;;;1.90;1.00;;;8.60;99.90;;;;;;5050739;28;20098;-65
2021/11/19 07:31:54;;;;;;;1.00;0.90;;;8.60;99.90;;;;;;5036494;28;20047;-64
2021/11/19 07:34:19;;;;;;;;;;;8.60;99.90;;;;;;5032051;28;20033;-64
2021/11/19 07:36:45;;;;;;;1.27;0.80;;;8.60;99.90;;;;;;5030644;28;20435;-64
2021/11/19 07:39:11;;;;;;;;;;;8.60;99.90;;;;;;5030598;28;20048;-65
2021/11/19 07:41:38;;;;;;;1.25;1.10;;;8.70;99.90;;;;;;5028771;28;19992;-65
2021/11/19 07:44:05;;;;;;;1.73;0.82;;;8.70;99.90;;;;;;5023004;28;20103;-64
2021/11/19 07:46:31;;;;;;;0.93;0.77;;;8.70;99.90;;;;;;5030211;28;20136;-63
2021/11/19 07:48:58;;;;;;;1.15;0.77;;;8.70;99.90;;;;;;5031017;28;20132;-64
2021/11/19 07:51:26;;;;;;;1.25;0.80;;;8.80;99.90;;;;;;5031487;28;20033;-64
2021/11/19 07:53:53;;;;;;;2.38;0.82;;;8.80;99.90;;;;;;5031082;28;20038;-64
2021/11/19 07:56:27;;;;;;;1.35;0.80;;;8.90;99.90;;;;;;5030671;28;20044;-64
2021/11/19 07:58:53;;;;;;;3.70;2.10;;;8.90;99.90;;;;;;5019978;28;20049;-64
2021/11/19 08:01:19;;;;;;;1.85;0.98;;;8.90;99.90;;;;;;5010341;28;20046;-64
2021/11/19 08:03:44;;;;;;;;;;;8.80;99.90;;;;;;5027518;28;20750;-65
2021/11/19 08:06:10;;;;;;;5.22;3.00;;;8.90;99.90;;;;;;5030919;28;20289;-64
2021/11/19 08:08:37;;;;;;;5.03;3.03;;;8.90;99.90;;;;;;5031360;28;20088;-64
2021/11/19 08:11:06;;;;;;;12.70;7.15;;;8.90;99.90;;;;;;5030571;28;20512;-64
2021/11/19 08:13:32;;;;;;;2.60;1.55;;;9.00;99.90;;;;;;5029635;28;20037;-64
2021/11/19 08:15:58;;;;;;;;;;;8.90;99.90;;;;;;5035227;28;20087;-64
2021/11/19 08:18:31;;;;;;;4.70;2.20;;;8.90;99.90;;;;;;5046230;28;19924;-65
2021/11/19 08:21:01;;;;;;;6.43;3.53;;;9.00;99.90;;;;;;5048979;28;20044;-64
2021/11/19 08:23:36;;;;;;;3.35;1.17;;;9.00;99.90;;;;;;5050112;28;20041;-64
2021/11/19 08:26:42;;;;;;;8.48;4.65;;;9.00;99.90;;;;;;5049671;28;20052;-64
2021/11/19 08:29:14;;;;;;;4.28;2.53;;;9.00;99.90;;;;;;5049144;28;20049;-64
2021/11/19 08:31:41;;;;;;;1.73;0.95;;;9.10;99.90;;;;;;5037020;28;20048;-64
2021/11/19 08:34:07;;;;;;;1.30;0.70;;;9.00;99.90;;;;;;5029733;28;20584;-65
2021/11/19 08:36:33;;;;;;;0.80;0.75;;;9.10;99.90;;;;;;5028690;28;20481;-65
2021/11/19 08:39:01;;;;;;;2.20;0.60;;;9.10;99.90;;;;;;5028840;28;20517;-62
2021/11/19 08:41:27;;;;;;;1.23;0.70;;;9.10;99.90;;;;;;5028239;28;20607;-62
2021/11/19 08:43:54;;;;;;;0.98;0.55;;;9.10;99.90;;;;;;5028452;28;20464;-62
2021/11/19 08:46:25;;;;;;;0.73;0.57;;;9.10;99.90;;;;;;5027543;28;20160;-62
2021/11/19 08:48:51;;;;;;;0.80;0.50;;;9.20;99.90;;;;;;5030398;28;20405;-63
2021/11/19 08:51:19;;;;;;;;;;;9.20;99.90;;;;;;5029359;28;20037;-63
2021/11/19 08:53:50;;;;;;;0.43;0.43;;;9.20;99.90;;;;;;5028286;28;19986;-63
2021/11/19 08:56:17;;;;;;;0.88;0.43;;;9.20;99.90;;;;;;5035023;28;20045;-63
2021/11/19 08:58:44;;;;;;;0.47;0.40;;;9.20;99.90;;;;;;5030375;28;20557;-63
2021/11/19 09:01:12;;;;;;;0.55;0.50;;;9.20;99.90;;;;;;5028301;28;20041;-63
2021/11/19 09:03:38;;;;;;;0.80;0.60;;;9.20;99.90;;;;;;5029765;28;20034;-63
2021/11/19 09:06:06;;;;;;;;;;;9.20;99.90;;;;;;5029341;28;20041;-64
2021/11/19 09:08:32;;;;;;;1.33;0.45;;;9.20;99.90;;;;;;5030763;28;20002;-63
2021/11/19 09:10:59;;;;;;;0.30;0.30;;;9.30;99.90;;;;;;5037749;28;20041;-63
2021/11/19 09:13:26;;;;;;;0.30;0.30;;;9.30;99.90;;;;;;5029575;28;20053;-63
2021/11/19 09:15:54;;;;;;;1.63;0.60;;;9.30;99.90;;;;;;5028439;28;20044;-64
2021/11/19 09:18:39;;;;;;;1.10;0.60;;;9.30;99.90;;;;;;5029627;28;20505;-64
2021/11/19 09:21:22;;;;;;;0.60;0.40;;;9.40;99.90;;;;;;5029754;28;20042;-63
2021/11/19 09:24:00;;;;;;;1.17;0.50;;;9.40;99.90;;;;;;5029190;28;20099;-64
2021/11/19 09:26:42;;;;;;;0.68;0.40;;;9.40;99.90;;;;;;5028614;28;20130;-63
2021/11/19 09:29:27;;;;;;;2.25;0.40;;;9.40;99.90;;;;;;5029308;28;20064;-63
2021/11/19 09:31:53;;;;;;;2.38;0.40;;;9.40;99.90;;;;;;5028304;28;20049;-63
2021/11/19 09:34:21;;;;;;;6.03;2.28;;;9.40;99.90;;;;;;5043478;28;20033;-63
2021/11/19 09:36:47;;;;;;;1.23;0.75;;;9.40;99.90;;;;;;5028918;28;20139;-63
2021/11/19 09:39:15;;;;;;;1.85;0.57;;;9.40;99.90;;;;;;5029082;28;20087;-64
2021/11/19 09:41:51;;;;;;;1.73;1.17;;;9.50;99.90;;;;;;5019589;28;20037;-64
2021/11/19 09:44:55;;;;;;;0.70;0.60;;;9.40;99.90;;;;;;5016860;28;20037;-63
2021/11/19 09:47:41;;;;;;;3.60;2.17;;;9.40;99.90;;;;;;5016694;28;20125;-63
2021/11/19 09:50:18;;;;;;;10.55;5.55;;;9.50;99.90;;;;;;5027716;28;20038;-63
2021/11/19 09:53:11;;;;;;;1.10;0.80;;;9.50;99.90;;;;;;5028910;28;20056;-62
2021/11/19 09:56:11;;;;;;;0.75;0.57;;;9.50;99.90;;;;;;5028681;28;20034;-64
2021/11/19 09:58:48;;;;;;;3.50;0.60;;;9.50;99.90;;;;;;5028946;28;20515;-63
2021/11/19 10:01:36;;;;;;;13.88;6.82;;;9.60;99.90;;;;;;5036558;28;20123;-64
2021/11/19 10:04:16;;;;;;;1.95;1.08;;;9.50;99.90;;;;;;5048572;28;20041;-63
2021/11/19 10:07:12;;;;;;;1.13;0.60;;;9.60;99.90;;;;;;5047366;28;20484;-63
2021/11/19 10:10:23;;;;;;;1.08;0.80;;;9.60;99.90;;;;;;5047531;28;20041;-63
2021/11/19 10:13:06;;;;;;;1.48;0.70;;;9.60;99.90;;;;;;5048940;28;20052;-63
2021/11/19 10:15:57;;;;;;;0.60;0.45;;;9.70;99.90;;;;;;5044314;28;20049;-64
2021/11/19 10:18:31;;;;;;;0.77;0.57;;;9.70;99.90;;;;;;5027799;28;20049;-64
2021/11/19 10:21:06;;;;;;;0.57;0.50;;;9.70;99.90;;;;;;5026921;28;20042;-62
2021/11/19 10:23:44;;;;;;;0.88;0.50;;;9.70;99.90;;;;;;5027934;28;20558;-62
2021/11/19 10:26:32;;;;;;;1.00;0.60;;;9.70;99.90;;;;;;5027155;28;20042;-63
2021/11/19 10:29:27;;;;;;;0.55;0.40;;;9.70;99.90;;;;;;5026891;28;20038;-63
2021/11/19 10:31:59;;;;;;;1.00;0.47;;;9.70;99.90;;;;;;5027178;28;20042;-64
2021/11/19 10:34:43;;;;;;;1.02;0.60;;;9.70;99.90;;;;;;5028292;28;20061;-64
2021/11/19 10:37:28;;;;;;;0.70;0.40;;;9.70;99.90;;;;;;5028049;28;20076;-65
2021/11/19 10:40:19;;;;;;;1.88;0.70;;;9.70;99.90;;;;;;5028003;28;20041;-65
2021/11/19 10:43:29;;;;;;;3.00;0.63;;;9.70;99.90;;;;;;5028135;28;20568;-65
2021/11/19 10:46:00;;;;;;;1.08;0.60;;;9.60;99.90;;;;;;4976094;28;20054;-66
2021/11/19 10:48:35;;;;;;;1.00;0.70;;;9.60;99.90;;;;;;5033824;28;20594;-65
2021/11/19 10:51:19;;;;;;;0.63;0.50;;;9.60;99.90;;;;;;5048099;28;20091;-65
2021/11/19 10:54:22;;;;;;;2.95;0.88;;;9.60;99.90;;;;;;5047415;28;20509;-65
2021/11/19 10:57:03;;;;;;;0.73;0.60;;;9.70;99.90;;;;;;5047942;28;20044;-65
2021/11/19 10:59:40;;;;;;;0.60;0.50;;;9.70;99.90;;;;;;5047203;28;20746;-64
2021/11/19 11:02:12;;;;;;;0.68;0.43;;;9.80;99.90;;;;;;5046588;28;20041;-64
2021/11/19 11:04:50;;;;;;;0.55;0.50;;;9.90;99.90;;;;;;5046824;28;20110;-65
2021/11/19 11:07:37;;;;;;;1.30;0.57;;;9.90;99.90;;;;;;5045180;28;20045;-64
2021/11/19 11:10:03;;;;;;;;;;;9.80;99.90;;;;;;5039877;28;20041;-64
2021/11/19 11:12:28;;;;;;;0.70;0.60;;;9.80;99.90;;;;;;5047070;28;19927;-65
2021/11/19 11:15:14;;;;;;;0.40;0.40;;;9.80;99.90;;;;;;5046962;28;20978;-65
2021/11/19 11:17:53;;;;;;;0.57;0.50;;;9.80;99.90;;;;;;5022788;28;20506;-63
2021/11/19 11:20:39;;;;;;;0.40;0.32;;;9.90;99.90;;;;;;5039404;28;20037;-64
2021/11/19 11:23:49;;;;;;;2.97;0.60;;;9.80;99.90;;;;;;5038928;28;20045;-65
2021/11/19 11:26:35;;;;;;;0.95;0.55;;;9.90;99.90;;;;;;4998998;28;20188;-66
2021/11/19 11:29:20;;;;;;;1.00;0.73;;;9.80;99.90;;;;;;5027224;28;20277;-65
2021/11/19 11:32:04;;;;;;;1.95;0.80;;;9.80;99.90;;;;;;5027061;28;20044;-65
2021/11/19 11:34:36;;;;;;;1.15;1.00;;;9.70;99.90;;;;;;5027462;28;20041;-65
2021/11/19 11:37:17;;;;;;;7.47;3.40;;;9.70;99.90;;;;;;5033326;28;20090;-65
2021/11/19 11:39:52;;;;;;;1.45;1.20;;;9.70;99.90;;;;;;5027395;28;20099;-65
2021/11/19 11:42:23;;;;;;;4.32;2.22;;;9.60;99.90;;;;;;5027903;28;20526;-65
2021/11/19 11:44:56;;;;;;;8.40;2.58;;;9.60;99.90;;;;;;5027304;28;20046;-63
2021/11/19 11:47:55;;;;;;;5.97;2.42;;;9.60;99.90;;;;;;5027056;28;20042;-64
2021/11/19 11:50:40;;;;;;;9.52;2.88;;;9.70;99.90;;;;;;5008025;28;20038;-64
2021/11/19 11:53:22;;;;;;;8.23;3.58;;;9.70;99.90;;;;;;5007333;28;20413;-64
2021/11/19 11:56:02;;;;;;;5.45;2.78;;;9.70;99.90;;;;;;5024842;28;20076;-64
2021/11/19 11:58:35;;;;;;;7.43;3.40;;;9.80;99.90;;;;;;5027457;28;20064;-64
2021/11/19 12:01:30;;;;;;;3.60;2.33;;;9.80;99.90;;;;;;5026313;28;20476;-65
2021/11/19 12:04:06;;;;;;;4.72;2.35;;;9.90;99.90;;;;;;5027320;28;20052;-65
2021/11/19 12:06:49;;;;;;;4.45;1.80;;;9.90;99.90;;;;;;5026683;28;20494;-64
2021/11/19 12:09:30;;;;;;;3.65;2.63;;;10.00;99.90;;;;;;5020903;28;20096;-64
2021/11/19 12:12:01;;;;;;;4.93;2.13;;;9.80;99.90;;;;;;5027084;28;20065;-64
2021/11/19 12:15:01;;;;;;;3.40;2.40;;;9.80;99.90;;;;;;5028593;28;20038;-62
2021/11/19 12:17:51;;;;;;;4.18;2.40;;;9.80;99.90;;;;;;5029192;28;20049;-63
2021/11/19 12:20:54;;;;;;;4.57;2.60;;;9.80;99.90;;;;;;5030421;28;20740;-63
2021/11/19 12:23:32;;;;;;;3.53;2.42;;;9.80;99.90;;;;;;5029886;28;20052;-63
2021/11/19 12:26:25;;;;;;;5.50;3.00;;;9.70;99.90;;;;;;5028544;28;20111;-63
2021/11/19 12:29:25;;;;;;;4.32;2.63;;;9.70;99.90;;;;;;5030223;28;20041;-64
2021/11/19 12:31:56;;;;;;;6.53;3.20;;;9.70;99.90;;;;;;5029904;28;20521;-65
2021/11/19 12:34:37;;;;;;;4.18;3.30;;;9.70;99.90;;;;;;5030185;28;20482;-65
2021/11/19 12:37:12;;;;;;;5.60;3.10;;;9.60;99.90;;;;;;5029919;28;20421;-64
2021/11/19 12:39:45;;;;;;;4.70;3.75;;;9.60;99.90;;;;;;5029554;28;20041;-63
2021/11/19 12:42:35;;;;;;;5.50;3.38;;;9.50;99.90;;;;;;5030126;28;20676;-64
2021/11/19 12:45:18;;;;;;;4.85;3.45;;;9.50;99.90;;;;;;5029310;28;20046;-64
2021/11/19 12:47:59;;;;;;;5.20;3.45;;;9.50;99.90;;;;;;5049490;28;20049;-65
2021/11/19 12:50:45;;;;;;;4.82;3.47;;;9.50;99.90;;;;;;5029505;28;20042;-63
2021/11/19 12:53:54;;;;;;;5.05;3.55;;;9.60;99.90;;;;;;5029633;28;20092;-63
2021/11/19 12:56:51;;;;;;;7.53;4.40;;;9.50;99.90;;;;;;5060096;28;20045;-63
2021/11/19 12:59:21;;;;;;;10.88;4.93;;;9.50;99.90;;;;;;5060956;28;20041;-66
2021/11/19 13:02:19;;;;;;;8.30;4.85;;;9.40;99.90;;;;;;5012686;28;20046;-66
2021/11/19 13:05:03;;;;;;;15.32;8.35;;;9.50;99.90;;;;;;5025261;28;20045;-66
2021/11/19 13:07:36;;;;;;;20.27;10.73;;;;;;;;;;5027005;28;20045;-62
2021/11/19 13:10:25;;;;;;;9.80;6.40;;;;;;;;;;5028234;28;20033;-62
2021/11/19 13:13:03;;;;;;;12.88;8.02;;;;;;;;;;5028833;28;20120;-62
2021/11/19 13:15:38;;;;;;;13.55;6.60;;;;;;;;;;5031204;28;20045;-63
2021/11/19 13:18:16;;;;;;;11.48;7.28;;;;;;;;;;5049094;28;20084;-63
2021/11/19 13:20:46;;;;;;;29.10;14.48;;;;;;;;;;5049818;28;20036;-65
2021/11/19 13:23:31;;;;;;;12.23;7.05;;;;;;;;;;5049507;28;20041;-64
2021/11/19 13:25:58;;;;;;;9.23;5.97;;;;;;;;;;5047303;28;20040;-66
2021/11/19 13:28:45;;;;;;;20.35;10.93;;;;;;;;;;5057181;28;20044;-66
2021/11/19 13:31:23;;;;;;;9.57;6.03;;;;;;;;;;5055660;28;20424;-65
2021/11/19 13:34:02;;;;;;;12.38;5.88;;;;;;;;;;5059470;28;20037;-64
2021/11/19 13:36:39;;;;;;;10.00;4.93;;;;;;;;;;5054071;28;20054;-64
2021/11/19 13:39:23;;;;;;;6.20;4.47;;;;;;;;;;5048528;28;20580;-64
2021/11/19 13:42:08;;;;;;;6.70;4.30;;;;;;;;;;5047636;28;20033;-64